Accueil
METAR-TAF:

METAR-TAF

Aéroports :

Wasilla, Alaska, États-Unis

latitude: 61-34-19N, longitude: 149-32-26W, altitude: 106 m

Observation

Le bulletin a été fait il y a 1 heure et 16 minutes, à 14:56 UTC
Vent 11 kt de est/nord-est avec des rafales jusqu'à 20 kt, variant entre nord-est et est/sud-est
Température 2°C
Humidité 47%
Pression 981 hPa
Visibilité: 16.1 km
Ciel couvert à une hauteur de 8000 ft

METAR: PAWS 141456Z AUTO 07011G20KT 040V120 10SM OVC080 02/M08 A2898 RMK AO2 SLP819 T00221078 58022 FZRANO

Heure: 07:12 (16:12 UTC)


TAF: absent

Observations et prévisions météorologiques de plus de 4000 aéroports (messages METAR et TAF).

Les stations disponibles sont représentées par des disques jaunes et rouges sur la carte.

Passer la souris dessus pour voir le nom de la station.

Cliquer dessus pour voir les observations et prévisions météorologiques.

Pour changer de carte: cliquez sur les boutons verts avec une croix noire pour zoomer, sur le bouton vert avec un tiret pour effectuer un zoom arrière, ou sur les flèches vertes pour les cartes adjacentes.


METAR-TAF: